Time;durP1;ratioP1;P1;durP2;ratioP2;P2;SDS_P1;SDS_P2;PMS_P1;PMS_P2;Temp;Humidity;BMP_temperature;BMP_pressure;BME280_temperature;BME280_humidity;BME280_pressure;Samples;Min_cycle;Max_cycle;Signal;HPM_P1;HPM_P2
2022/10/31 00:02:21;;;;;;;10.70;7.13;;;20.00;57.70;;;;;;5046181;28;20196;-57
2022/10/31 00:04:47;;;;;;;9.03;6.60;;;19.90;58.00;;;;;;5042003;28;20764;-57
2022/10/31 00:07:12;;;;;;;9.53;6.67;;;20.00;57.90;;;;;;5046289;28;20196;-57
2022/10/31 00:09:38;;;;;;;10.50;6.47;;;20.00;57.80;;;;;;5042167;28;20288;-58
2022/10/31 00:12:03;;;;;;;12.00;7.07;;;20.00;58.10;;;;;;5045913;28;20242;-58
2022/10/31 00:14:29;;;;;;;8.97;6.67;;;20.00;58.10;;;;;;5040431;28;20196;-57
2022/10/31 00:16:54;;;;;;;9.23;6.40;;;20.00;57.60;;;;;;5044500;28;20216;-57
2022/10/31 00:19:20;;;;;;;7.27;6.57;;;20.00;57.50;;;;;;5039565;28;20193;-57
2022/10/31 00:21:46;;;;;;;8.53;6.40;;;19.90;58.00;;;;;;5039774;28;20308;-57
2022/10/31 00:24:11;;;;;;;8.17;6.10;;;19.90;58.00;;;;;;5043961;28;20196;-58
2022/10/31 00:26:37;;;;;;;7.37;5.93;;;19.90;57.90;;;;;;5049350;28;20583;-57
2022/10/31 00:29:03;;;;;;;8.40;5.83;;;19.80;58.00;;;;;;5049483;28;20196;-57
2022/10/31 00:31:29;;;;;;;7.50;6.17;;;19.80;58.50;;;;;;5046705;28;20203;-57
2022/10/31 00:33:55;;;;;;;7.53;6.47;;;19.80;58.60;;;;;;5046703;28;20447;-57
2022/10/31 00:36:20;;;;;;;10.20;6.50;;;19.80;58.60;;;;;;5044840;28;20188;-57
2022/10/31 00:38:47;;;;;;;10.80;6.00;;;19.80;58.90;;;;;;5043777;28;20497;-58
2022/10/31 00:41:14;;;;;;;11.53;6.43;;;19.80;58.80;;;;;;5043501;28;20284;-57
2022/10/31 00:43:43;;;;;;;9.20;5.83;;;19.80;58.40;;;;;;5045830;28;20450;-57
2022/10/31 00:46:10;;;;;;;10.20;6.17;;;19.80;58.60;;;;;;5041044;28;20489;-58
2022/10/31 00:48:36;;;;;;;9.30;6.00;;;19.70;58.60;;;;;;5047686;28;20469;-57
2022/10/31 00:51:02;;;;;;;7.80;5.13;;;19.60;59.00;;;;;;5046053;28;20457;-57
2022/10/31 00:53:27;;;;;;;10.20;5.60;;;19.50;58.80;;;;;;5041043;28;21320;-57
2022/10/31 00:55:53;;;;;;;7.53;6.20;;;19.60;59.30;;;;;;5046049;28;20200;-57
2022/10/31 00:58:18;;;;;;;13.60;5.97;;;19.50;59.00;;;;;;5046705;28;20274;-57
2022/10/31 01:00:46;;;;;;;6.80;5.27;;;19.40;58.50;;;;;;5043598;28;20197;-57
2022/10/31 01:03:12;;;;;;;6.93;5.97;;;19.10;59.40;;;;;;5047574;28;20207;-57
2022/10/31 01:05:37;;;;;;;11.63;5.50;;;19.20;60.00;;;;;;5043066;28;20494;-58
2022/10/31 01:08:03;;;;;;;10.67;6.20;;;19.20;59.80;;;;;;5043012;28;20280;-53
2022/10/31 01:10:28;;;;;;;8.37;5.73;;;19.10;59.40;;;;;;5040897;28;20563;-56
2022/10/31 01:12:54;;;;;;;7.53;6.27;;;18.70;59.50;;;;;;5043826;28;20192;-55
2022/10/31 01:15:22;;;;;;;8.80;6.40;;;18.40;60.60;;;;;;5042763;28;20652;-55
2022/10/31 01:17:48;;;;;;;8.40;6.40;;;18.20;60.70;;;;;;5042790;28;20268;-54
2022/10/31 01:20:15;;;;;;;10.10;5.90;;;17.80;62.80;;;;;;5042735;28;20986;-54
2022/10/31 01:22:40;;;;;;;7.30;5.60;;;17.70;62.80;;;;;;5044873;28;20188;-54
2022/10/31 01:25:07;;;;;;;8.80;6.43;;;17.50;63.20;;;;;;5041579;28;20989;-55
2022/10/31 01:27:34;;;;;;;9.63;6.17;;;17.30;64.00;;;;;;5042869;28;20193;-55
2022/10/31 01:29:59;;;;;;;8.40;5.93;;;17.30;64.40;;;;;;5026815;28;20465;-56
2022/10/31 01:32:26;;;;;;;5.43;4.93;;;17.30;63.80;;;;;;5042593;28;20930;-55
2022/10/31 01:34:52;;;;;;;6.93;5.60;;;17.40;63.70;;;;;;5033798;28;20207;-55
2022/10/31 01:37:17;;;;;;;7.13;5.70;;;17.50;63.30;;;;;;5044200;28;22270;-56
2022/10/31 01:39:43;;;;;;;13.97;5.60;;;17.50;63.50;;;;;;5039343;28;20246;-55
2022/10/31 01:42:18;;;;;;;7.53;5.20;;;17.50;63.40;;;;;;5045388;28;20203;-56
2022/10/31 01:44:50;;;;;;;7.43;5.10;;;17.60;63.50;;;;;;5040733;28;20307;-54
2022/10/31 01:47:19;;;;;;;6.80;5.50;;;17.60;63.70;;;;;;5042853;28;20512;-54
2022/10/31 01:49:48;;;;;;;10.70;5.60;;;17.60;63.70;;;;;;5042331;28;20435;-55
2022/10/31 01:52:24;;;;;;;7.40;6.10;;;17.60;63.20;;;;;;5046977;28;20439;-56
2022/10/31 01:55:04;;;;;;;11.53;5.70;;;17.60;63.30;;;;;;5050181;28;20609;-55
2022/10/31 01:57:32;;;;;;;5.93;5.00;;;17.60;63.30;;;;;;5046461;28;20876;-55
2022/10/31 02:00:01;;;;;;;9.33;5.50;;;17.50;63.40;;;;;;5045607;28;20581;-56
2022/10/31 02:02:30;;;;;;;6.90;4.93;;;17.40;63.50;;;;;;5046214;28;20481;-55
2022/10/31 02:04:57;;;;;;;10.53;5.33;;;17.40;63.60;;;;;;5043701;28;20478;-55
2022/10/31 02:07:39;;;;;;;7.63;5.70;;;17.40;63.90;;;;;;5046715;28;21184;-56
2022/10/31 02:10:05;;;;;;;6.43;5.20;;;17.40;63.80;;;;;;5024938;28;20488;-56
2022/10/31 02:12:32;;;;;;;9.20;6.20;;;17.40;63.70;;;;;;5049139;28;20469;-55
2022/10/31 02:14:59;;;;;;;9.23;5.30;;;17.20;64.10;;;;;;5046573;28;20442;-55
2022/10/31 02:17:25;;;;;;;12.17;5.80;;;17.10;64.30;;;;;;5050633;28;20778;-56
2022/10/31 02:19:53;;;;;;;12.70;5.57;;;16.90;65.10;;;;;;5042465;28;20458;-56
2022/10/31 02:22:37;;;;;;;7.57;5.57;;;17.00;65.50;;;;;;5045225;28;20197;-55
2022/10/31 02:25:28;;;;;;;8.83;5.30;;;16.90;65.80;;;;;;5028269;28;20956;-55
2022/10/31 02:28:21;;;;;;;7.60;5.57;;;16.70;66.00;;;;;;5040409;28;20455;-55
2022/10/31 02:31:04;;;;;;;7.20;4.93;;;16.80;66.00;;;;;;5047165;28;20451;-54
2022/10/31 02:33:52;;;;;;;8.33;5.00;;;16.70;66.10;;;;;;5039784;28;20450;-55
2022/10/31 02:36:35;;;;;;;10.30;5.37;;;16.60;65.90;;;;;;5042941;28;20501;-56
2022/10/31 02:39:23;;;;;;;7.67;5.00;;;16.60;66.20;;;;;;5044595;28;20442;-55
2022/10/31 02:42:03;;;;;;;11.07;6.00;;;16.70;65.90;;;;;;5050252;28;20938;-55
2022/10/31 02:44:34;;;;;;;9.73;5.37;;;16.90;65.40;;;;;;5048048;28;20461;-55
2022/10/31 02:47:12;;;;;;;6.40;4.50;;;17.00;64.90;;;;;;5043658;28;20458;-55
2022/10/31 02:49:57;;;;;;;9.40;5.33;;;17.00;64.70;;;;;;5042310;28;20966;-55
2022/10/31 02:52:28;;;;;;;7.73;5.70;;;16.90;64.80;;;;;;5039958;28;20454;-54
2022/10/31 02:54:54;;;;;;;5.83;5.07;;;16.80;64.90;;;;;;5041096;28;20491;-55
2022/10/31 02:57:28;;;;;;;9.00;4.57;;;16.50;65.20;;;;;;5046454;28;20478;-55
2022/10/31 03:00:00;;;;;;;5.50;4.70;;;16.30;67.10;;;;;;5049151;28;20189;-55
2022/10/31 03:02:51;;;;;;;7.70;5.27;;;16.20;67.30;;;;;;5048534;28;20796;-56
2022/10/31 03:05:22;;;;;;;8.63;5.20;;;16.40;66.90;;;;;;5042732;28;20589;-55
2022/10/31 03:08:01;;;;;;;10.43;4.73;;;16.50;66.00;;;;;;5043635;28;20451;-56
2022/10/31 03:10:51;;;;;;;5.57;4.50;;;16.60;65.60;;;;;;5023924;28;20447;-55
2022/10/31 03:13:20;;;;;;;7.07;5.10;;;16.70;64.80;;;;;;5044679;28;20451;-55
2022/10/31 03:15:51;;;;;;;7.17;5.13;;;16.50;64.60;;;;;;5041728;28;20816;-56
2022/10/31 03:18:34;;;;;;;5.97;4.40;;;16.50;64.90;;;;;;5040584;28;20516;-55
2022/10/31 03:21:20;;;;;;;6.33;4.90;;;16.60;64.90;;;;;;5043450;28;20482;-55
2022/10/31 03:23:48;;;;;;;11.70;5.70;;;16.70;64.50;;;;;;5043235;28;20814;-54
2022/10/31 03:26:15;;;;;;;6.10;4.63;;;16.80;64.10;;;;;;5041137;28;21035;-55
2022/10/31 03:28:49;;;;;;;12.10;5.03;;;16.80;63.80;;;;;;5045416;28;20435;-55
2022/10/31 03:31:18;;;;;;;9.53;5.67;;;16.70;63.60;;;;;;5041337;28;22645;-56
2022/10/31 03:33:45;;;;;;;4.60;4.20;;;16.60;64.30;;;;;;5041575;28;20577;-55
2022/10/31 03:36:13;;;;;;;8.63;4.47;;;16.40;64.90;;;;;;5043683;28;20525;-55
2022/10/31 03:38:41;;;;;;;7.57;5.73;;;16.20;66.00;;;;;;5044885;28;20451;-55
2022/10/31 03:41:10;;;;;;;6.50;4.80;;;16.30;65.60;;;;;;5048109;28;20523;-55
2022/10/31 03:43:42;;;;;;;6.00;4.90;;;16.30;65.60;;;;;;5041753;28;20954;-55
2022/10/31 03:46:08;;;;;;;6.00;4.70;;;16.40;65.00;;;;;;5045647;28;20497;-55
2022/10/31 03:48:34;;;;;;;6.60;5.03;;;16.50;64.60;;;;;;5041653;28;20446;-55
2022/10/31 03:51:05;;;;;;;11.73;5.10;;;16.60;64.40;;;;;;5045958;28;20450;-55
2022/10/31 03:53:37;;;;;;;6.30;4.97;;;16.60;63.90;;;;;;5042808;28;20330;-54
2022/10/31 03:56:11;;;;;;;8.27;5.30;;;16.70;63.60;;;;;;5042529;28;20996;-54
2022/10/31 03:58:48;;;;;;;4.63;4.20;;;16.70;63.50;;;;;;5042909;28;20431;-56
2022/10/31 04:01:17;;;;;;;7.87;5.10;;;16.70;63.30;;;;;;5043900;28;20443;-55
2022/10/31 04:03:44;;;;;;;5.40;5.00;;;16.50;63.70;;;;;;5044734;28;20459;-55
2022/10/31 04:06:13;;;;;;;7.80;5.23;;;16.30;64.60;;;;;;5042853;28;20547;-55
2022/10/31 04:08:51;;;;;;;6.23;4.67;;;16.20;64.90;;;;;;5042878;28;21045;-54
2022/10/31 04:11:20;;;;;;;9.10;4.80;;;16.30;64.80;;;;;;5045610;28;21008;-55
2022/10/31 04:13:48;;;;;;;12.23;4.83;;;16.40;64.60;;;;;;5044266;28;20447;-55
2022/10/31 04:16:15;;;;;;;6.07;4.70;;;16.40;64.20;;;;;;5048400;28;20597;-55
2022/10/31 04:18:40;;;;;;;8.07;4.40;;;16.40;64.30;;;;;;5043812;28;20439;-55
2022/10/31 04:21:08;;;;;;;11.40;4.67;;;16.40;63.90;;;;;;5037191;28;20450;-56
2022/10/31 04:23:35;;;;;;;8.10;4.57;;;16.40;63.70;;;;;;5038321;28;20639;-55
2022/10/31 04:26:01;;;;;;;10.23;5.10;;;16.40;63.70;;;;;;5042457;28;20486;-56
2022/10/31 04:28:27;;;;;;;5.47;4.97;;;16.40;64.10;;;;;;5045425;28;20541;-56
2022/10/31 04:30:52;;;;;;;6.23;5.00;;;16.40;63.90;;;;;;5041291;28;20224;-55
2022/10/31 04:33:18;;;;;;;7.30;5.00;;;16.50;63.70;;;;;;5041415;28;20204;-55
2022/10/31 04:35:44;;;;;;;7.13;5.30;;;16.40;63.20;;;;;;5039559;28;20201;-56
2022/10/31 04:38:09;;;;;;;8.83;5.30;;;16.30;63.30;;;;;;5040669;28;20522;-55
2022/10/31 04:40:35;;;;;;;6.43;5.33;;;16.30;63.60;;;;;;5042293;28;20330;-55
2022/10/31 04:43:01;;;;;;;9.13;4.47;;;16.30;63.50;;;;;;5040828;28;20228;-56
2022/10/31 04:45:26;;;;;;;8.57;5.20;;;16.30;63.10;;;;;;5046053;28;20278;-55
2022/10/31 04:47:52;;;;;;;6.57;4.67;;;16.20;63.70;;;;;;5046181;28;21266;-55
2022/10/31 04:50:17;;;;;;;7.80;5.30;;;16.10;63.70;;;;;;5048054;28;20656;-54
2022/10/31 04:52:44;;;;;;;9.63;5.03;;;16.00;64.30;;;;;;5047155;28;20241;-54
2022/10/31 04:55:11;;;;;;;6.83;4.83;;;16.00;64.50;;;;;;5040658;28;20200;-55
2022/10/31 04:57:45;;;;;;;8.63;4.40;;;15.90;64.70;;;;;;5044299;28;20439;-55
2022/10/31 05:00:13;;;;;;;7.37;4.40;;;15.90;65.70;;;;;;5044969;28;20445;-55
2022/10/31 05:02:46;;;;;;;5.50;4.00;;;15.80;65.10;;;;;;5039406;28;20505;-55
2022/10/31 05:05:13;;;;;;;11.23;4.50;;;15.70;66.00;;;;;;5040901;28;20475;-55
2022/10/31 05:07:41;;;;;;;10.37;5.60;;;15.60;66.60;;;;;;5043619;28;20461;-56
2022/10/31 05:10:09;;;;;;;13.57;4.90;;;15.60;67.10;;;;;;5043273;28;21295;-54
2022/10/31 05:12:35;;;;;;;5.80;4.40;;;15.60;67.40;;;;;;5043290;28;20527;-55
2022/10/31 05:15:01;;;;;;;6.20;4.97;;;15.70;67.00;;;;;;5043872;28;20451;-55
2022/10/31 05:17:26;;;;;;;5.27;4.40;;;15.60;66.80;;;;;;5046941;28;20447;-55
2022/10/31 05:19:52;;;;;;;6.47;4.30;;;15.70;67.20;;;;;;5041378;28;20197;-55
2022/10/31 05:22:17;;;;;;;5.27;4.50;;;15.60;67.00;;;;;;5049174;28;20250;-54
2022/10/31 05:24:43;;;;;;;7.13;4.30;;;15.60;67.30;;;;;;5044431;28;20699;-55
2022/10/31 05:27:08;;;;;;;5.20;4.53;;;15.60;67.30;;;;;;5041596;28;20282;-55
2022/10/31 05:29:34;;;;;;;7.40;4.70;;;15.60;67.30;;;;;;5046700;28;20284;-55
2022/10/31 05:31:59;;;;;;;5.30;4.20;;;15.50;66.80;;;;;;5046761;28;20196;-55
2022/10/31 05:34:25;;;;;;;6.60;6.00;;;15.30;67.20;;;;;;5039832;28;20477;-55
2022/10/31 05:36:50;;;;;;;6.50;5.60;;;15.00;68.70;;;;;;5046391;28;20282;-55
2022/10/31 05:39:16;;;;;;;5.77;4.10;;;14.80;69.50;;;;;;5042919;28;20307;-55
2022/10/31 05:41:42;;;;;;;6.77;5.53;;;14.70;70.50;;;;;;5046830;28;20188;-55
2022/10/31 05:44:07;;;;;;;8.13;5.30;;;14.80;69.80;;;;;;5040961;28;20271;-56
2022/10/31 05:46:33;;;;;;;6.60;5.03;;;15.10;69.00;;;;;;5042290;28;20229;-55
2022/10/31 05:48:58;;;;;;;6.60;4.50;;;15.20;67.90;;;;;;5044672;28;20227;-55
2022/10/31 05:51:24;;;;;;;9.20;5.30;;;15.20;67.00;;;;;;5041936;28;20198;-55
2022/10/31 05:53:50;;;;;;;7.23;4.90;;;15.10;67.00;;;;;;5041859;28;20600;-55
2022/10/31 05:56:15;;;;;;;5.40;4.90;;;15.00;67.50;;;;;;5043367;28;20204;-55
2022/10/31 05:58:41;;;;;;;8.50;4.57;;;15.00;67.90;;;;;;5045570;28;20193;-55
2022/10/31 06:01:06;;;;;;;10.20;4.50;;;15.00;67.80;;;;;;5024207;28;21780;-57
2022/10/31 06:03:32;;;;;;;8.50;4.73;;;15.10;68.30;;;;;;5044371;28;21002;-57
2022/10/31 06:05:57;;;;;;;7.77;4.77;;;15.30;70.20;;;;;;5048870;28;20461;-57
2022/10/31 06:08:23;;;;;;;6.10;4.63;;;15.60;70.30;;;;;;5049324;28;20192;-57
2022/10/31 06:10:49;;;;;;;7.20;4.90;;;15.90;69.50;;;;;;5040072;28;20193;-57
2022/10/31 06:13:14;;;;;;;6.00;5.00;;;16.00;68.20;;;;;;5047941;28;20231;-57
2022/10/31 06:15:41;;;;;;;7.47;5.07;;;16.00;66.80;;;;;;5049438;28;20652;-57
2022/10/31 06:18:08;;;;;;;8.80;4.50;;;16.00;65.90;;;;;;5043756;28;20196;-57
2022/10/31 06:20:34;;;;;;;10.70;5.50;;;16.10;66.20;;;;;;5041553;28;20447;-57
2022/10/31 06:23:00;;;;;;;7.77;6.10;;;16.30;65.50;;;;;;5041082;28;20504;-57
2022/10/31 06:25:26;;;;;;;11.60;5.90;;;16.40;65.20;;;;;;5045277;28;20240;-57
2022/10/31 06:27:51;;;;;;;8.43;5.13;;;16.40;64.40;;;;;;5046743;28;20185;-57
2022/10/31 06:30:17;;;;;;;10.43;5.77;;;16.60;64.20;;;;;;5046707;28;20437;-57
2022/10/31 06:32:42;;;;;;;12.43;6.00;;;16.80;63.50;;;;;;5039834;28;20205;-57
2022/10/31 06:35:08;;;;;;;11.50;6.27;;;17.00;62.40;;;;;;5046201;28;20189;-57
2022/10/31 06:37:34;;;;;;;7.53;5.40;;;17.20;62.10;;;;;;5048712;28;20815;-57
2022/10/31 06:39:59;;;;;;;7.67;5.03;;;17.30;61.60;;;;;;5050299;28;20672;-57
2022/10/31 06:42:25;;;;;;;6.50;5.07;;;17.50;60.80;;;;;;5051694;28;20189;-57
2022/10/31 06:44:50;;;;;;;6.00;5.00;;;17.60;59.70;;;;;;5047218;28;20656;-57
2022/10/31 06:47:16;;;;;;;5.50;4.80;;;17.80;59.80;;;;;;5046238;28;21040;-57
2022/10/31 06:49:42;;;;;;;9.83;6.00;;;17.90;58.30;;;;;;5048091;28;20203;-57
2022/10/31 06:52:07;;;;;;;6.47;5.27;;;18.10;58.40;;;;;;5048594;28;20202;-58
2022/10/31 06:54:33;;;;;;;7.60;5.10;;;18.30;57.80;;;;;;5051633;28;20563;-57
2022/10/31 06:56:58;;;;;;;6.23;4.53;;;18.20;57.90;;;;;;5049819;28;20201;-57
2022/10/31 06:59:24;;;;;;;8.73;4.87;;;18.30;57.90;;;;;;5048846;28;20192;-58
2022/10/31 07:01:50;;;;;;;4.90;4.40;;;18.40;57.90;;;;;;5043309;28;20192;-56
2022/10/31 07:04:15;;;;;;;9.87;5.47;;;18.40;57.80;;;;;;5048762;28;20197;-56
2022/10/31 07:06:41;;;;;;;7.17;5.03;;;18.50;59.20;;;;;;5051444;28;20563;-57
2022/10/31 07:09:07;;;;;;;6.10;4.60;;;18.70;58.30;;;;;;5045720;28;20200;-56
2022/10/31 07:11:32;;;;;;;9.43;5.00;;;18.90;57.20;;;;;;5045658;28;20250;-56
2022/10/31 07:13:58;;;;;;;6.20;5.13;;;19.10;56.70;;;;;;5044192;28;20213;-56
2022/10/31 07:16:25;;;;;;;7.37;4.83;;;19.30;56.30;;;;;;5037002;28;21845;-53
2022/10/31 07:18:51;;;;;;;7.40;4.50;;;19.40;55.80;;;;;;5044502;28;20196;-55
2022/10/31 07:21:16;;;;;;;5.80;4.60;;;19.50;55.30;;;;;;5041780;28;20444;-54
2022/10/31 07:23:42;;;;;;;13.33;4.70;;;19.70;55.10;;;;;;5048573;28;20192;-54
2022/10/31 07:26:09;;;;;;;6.70;4.70;;;19.80;54.70;;;;;;5047367;28;20575;-55
2022/10/31 07:28:35;;;;;;;9.80;4.20;;;19.90;54.50;;;;;;5049877;28;20211;-55
2022/10/31 07:31:00;;;;;;;6.90;5.20;;;19.90;54.40;;;;;;5042239;28;20420;-55
2022/10/31 07:33:26;;;;;;;10.10;5.57;;;19.90;54.30;;;;;;5050123;28;20311;-55
2022/10/31 07:35:52;;;;;;;5.03;4.53;;;20.00;54.40;;;;;;5053350;28;20188;-54
2022/10/31 07:38:18;;;;;;;5.10;4.10;;;20.00;54.30;;;;;;5052035;28;20230;-55
2022/10/31 07:40:49;;;;;;;5.80;3.97;;;20.00;54.10;;;;;;5043134;28;20428;-53
2022/10/31 07:43:14;;;;;;;8.63;5.03;;;20.10;54.10;;;;;;5040911;28;20591;-55
2022/10/31 07:45:40;;;;;;;6.47;4.23;;;20.10;54.10;;;;;;5047790;28;20494;-54
2022/10/31 07:48:05;;;;;;;8.53;4.40;;;20.10;54.20;;;;;;5050199;28;20275;-55
2022/10/31 07:50:35;;;;;;;5.90;4.60;;;20.10;54.40;;;;;;5052735;28;20726;-54
2022/10/31 07:53:10;;;;;;;5.40;4.80;;;20.10;54.40;;;;;;5051831;28;20613;-53
2022/10/31 07:55:36;;;;;;;7.93;4.40;;;20.10;54.60;;;;;;5052587;28;20790;-54
2022/10/31 07:58:05;;;;;;;8.20;5.33;;;20.10;54.90;;;;;;5047387;28;20450;-54
2022/10/31 08:00:32;;;;;;;6.23;4.67;;;20.10;55.70;;;;;;5051179;28;21291;-55
2022/10/31 08:02:59;;;;;;;6.30;4.60;;;20.10;55.20;;;;;;5043734;28;20894;-55
2022/10/31 08:05:25;;;;;;;5.17;4.60;;;20.10;55.30;;;;;;5036378;28;20974;-54
2022/10/31 08:07:50;;;;;;;7.20;4.50;;;20.20;55.30;;;;;;5032165;28;20452;-53
2022/10/31 08:10:16;;;;;;;6.53;4.70;;;20.20;55.40;;;;;;5030891;28;20232;-54
2022/10/31 08:12:41;;;;;;;5.40;4.53;;;20.20;55.30;;;;;;5044094;28;20188;-54
2022/10/31 08:15:08;;;;;;;7.20;4.77;;;20.20;55.30;;;;;;5051932;28;20672;-54
2022/10/31 08:17:37;;;;;;;5.90;5.10;;;20.20;55.00;;;;;;5045496;28;20661;-54
2022/10/31 08:20:04;;;;;;;8.03;5.10;;;20.20;55.00;;;;;;5031754;28;20460;-54
2022/10/31 08:22:29;;;;;;;6.67;4.00;;;20.10;54.90;;;;;;5038367;28;20529;-55
2022/10/31 08:24:55;;;;;;;6.50;4.90;;;20.10;54.90;;;;;;5040207;28;22876;-54
2022/10/31 08:27:20;;;;;;;7.23;4.93;;;20.20;55.10;;;;;;5032257;28;20197;-54
2022/10/31 08:29:46;;;;;;;8.00;5.60;;;20.20;55.20;;;;;;5046541;28;20607;-55
2022/10/31 08:32:11;;;;;;;10.80;5.63;;;20.20;55.30;;;;;;5051474;28;20193;-54
2022/10/31 08:34:37;;;;;;;8.90;5.57;;;20.20;55.30;;;;;;5051427;28;20656;-54
2022/10/31 08:37:02;;;;;;;10.60;6.30;;;20.30;55.50;;;;;;5049971;28;20236;-54
2022/10/31 08:39:29;;;;;;;10.17;6.13;;;20.30;55.40;;;;;;5049013;28;20275;-54
2022/10/31 08:41:55;;;;;;;9.73;6.50;;;20.30;55.70;;;;;;5047950;28;20478;-55
2022/10/31 08:44:20;;;;;;;10.63;6.40;;;20.30;55.70;;;;;;5047454;28;20643;-54
2022/10/31 08:46:46;;;;;;;8.90;7.57;;;20.30;55.70;;;;;;5043620;28;20235;-55
2022/10/31 08:49:12;;;;;;;6.10;5.50;;;20.40;55.70;;;;;;5041191;28;20228;-55
2022/10/31 08:51:37;;;;;;;10.50;7.50;;;20.40;55.70;;;;;;5045341;28;20218;-54
2022/10/31 08:54:03;;;;;;;11.03;6.50;;;20.40;55.60;;;;;;5042212;28;20200;-55
2022/10/31 08:56:28;;;;;;;8.33;6.67;;;20.50;55.50;;;;;;5045738;28;20656;-56
2022/10/31 08:58:54;;;;;;;12.67;6.63;;;20.50;55.40;;;;;;5030969;28;20225;-55
2022/10/31 09:01:20;;;;;;;11.63;8.13;;;20.60;55.40;;;;;;5043916;28;20192;-56
2022/10/31 09:03:45;;;;;;;11.50;7.00;;;20.60;55.20;;;;;;5048063;28;20202;-54
2022/10/31 09:06:11;;;;;;;8.80;6.90;;;20.60;55.80;;;;;;5040047;28;20224;-54
2022/10/31 09:08:37;;;;;;;8.10;6.60;;;20.30;56.20;;;;;;5046756;28;20724;-54
2022/10/31 09:11:03;;;;;;;12.77;7.33;;;20.20;56.30;;;;;;5048328;28;20201;-51
2022/10/31 09:13:29;;;;;;;11.03;7.20;;;20.30;56.30;;;;;;5037515;28;20658;-53
2022/10/31 09:15:56;;;;;;;9.87;7.63;;;20.40;56.50;;;;;;5046297;28;20435;-53
2022/10/31 09:18:23;;;;;;;10.30;8.13;;;20.40;56.10;;;;;;5043806;28;21000;-55
2022/10/31 09:20:50;;;;;;;18.90;8.90;;;20.40;56.40;;;;;;5038405;28;20439;-55
2022/10/31 09:23:21;;;;;;;10.03;6.83;;;20.50;56.40;;;;;;5046340;28;20439;-56
2022/10/31 09:25:48;;;;;;;8.60;6.70;;;20.40;56.60;;;;;;5044130;28;21173;-55
2022/10/31 09:28:18;;;;;;;8.67;6.43;;;20.60;56.40;;;;;;5044309;28;20435;-55
2022/10/31 09:30:46;;;;;;;8.83;5.90;;;20.70;56.20;;;;;;5046898;28;20443;-55
2022/10/31 09:33:13;;;;;;;8.97;5.47;;;20.80;56.20;;;;;;5041538;28;20453;-54
2022/10/31 09:35:40;;;;;;;10.23;6.33;;;20.90;55.50;;;;;;5046082;28;20454;-55
2022/10/31 09:38:18;;;;;;;10.70;6.10;;;21.00;55.00;;;;;;5045025;28;20471;-56
2022/10/31 09:41:07;;;;;;;8.57;5.80;;;21.00;54.80;;;;;;5048160;28;20962;-57
2022/10/31 09:43:47;;;;;;;8.63;5.60;;;21.10;55.00;;;;;;5045283;28;20445;-55
2022/10/31 09:46:17;;;;;;;11.17;6.50;;;21.20;54.80;;;;;;5044716;28;20872;-56
2022/10/31 09:49:11;;;;;;;8.70;5.90;;;21.30;54.70;;;;;;5046176;28;20447;-56
2022/10/31 09:51:49;;;;;;;5.77;4.90;;;21.30;54.70;;;;;;5045225;28;20474;-56
2022/10/31 09:54:21;;;;;;;8.60;5.87;;;21.40;56.10;;;;;;5045149;28;20512;-56
2022/10/31 09:56:47;;;;;;;8.60;6.30;;;21.60;55.10;;;;;;5050258;28;20439;-55
2022/10/31 09:59:33;;;;;;;7.20;5.50;;;21.60;54.60;;;;;;5049107;28;20521;-56
2022/10/31 10:02:09;;;;;;;14.33;6.63;;;21.70;54.50;;;;;;5041036;28;21021;-56
2022/10/31 10:04:53;;;;;;;5.83;5.20;;;21.80;54.20;;;;;;5046629;28;20629;-56
2022/10/31 10:07:30;;;;;;;11.00;5.93;;;21.90;54.10;;;;;;5048801;28;20591;-56
2022/10/31 10:09:56;;;;;;;8.40;5.23;;;21.90;54.10;;;;;;5049233;28;20818;-56
2022/10/31 10:12:41;;;;;;;12.47;5.73;;;21.90;54.30;;;;;;5051055;28;20458;-56
2022/10/31 10:15:26;;;;;;;10.20;5.30;;;22.00;54.30;;;;;;5049047;28;20532;-57
2022/10/31 10:18:05;;;;;;;11.87;5.83;;;22.10;54.10;;;;;;5048633;28;20447;-56
2022/10/31 10:20:35;;;;;;;9.77;6.07;;;22.30;54.00;;;;;;5049692;28;20444;-56
2022/10/31 10:23:32;;;;;;;11.40;5.73;;;22.30;53.80;;;;;;5051499;28;20462;-56
2022/10/31 10:26:21;;;;;;;9.63;5.77;;;22.30;53.90;;;;;;5047390;28;20547;-57
2022/10/31 10:28:57;;;;;;;17.27;5.70;;;22.20;53.80;;;;;;5043228;28;20443;-57
2022/10/31 10:31:37;;;;;;;18.93;6.77;;;22.20;54.10;;;;;;5048605;28;20570;-55
2022/10/31 10:34:31;;;;;;;8.50;5.53;;;22.20;54.10;;;;;;5044214;28;20442;-56
2022/10/31 10:37:14;;;;;;;7.80;5.30;;;22.40;53.80;;;;;;5050235;28;20528;-56
2022/10/31 10:39:44;;;;;;;10.90;5.27;;;22.50;54.40;;;;;;5046967;28;20427;-56
2022/10/31 10:47:53;;;;;;;9.53;5.90;;;22.70;53.70;;;;;;5044644;28;20532;-57
2022/10/31 10:50:22;;;;;;;7.70;5.87;;;22.60;53.60;;;;;;5045743;28;20450;-56
2022/10/31 10:53:20;;;;;;;8.10;5.30;;;22.70;53.30;;;;;;5049142;28;20452;-56
2022/10/31 10:55:56;;;;;;;9.70;6.07;;;22.80;53.30;;;;;;5043352;28;20454;-57
2022/10/31 10:58:22;;;;;;;6.47;5.70;;;22.80;53.10;;;;;;5048980;28;20446;-57
2022/10/31 11:00:49;;;;;;;10.40;5.10;;;22.80;53.00;;;;;;5045913;28;20500;-55
2022/10/31 11:03:16;;;;;;;10.80;4.40;;;22.80;53.20;;;;;;5044887;28;20593;-56
2022/10/31 11:05:50;;;;;;;7.60;5.47;;;22.90;53.30;;;;;;5049985;28;20573;-55
2022/10/31 11:08:33;;;;;;;8.90;5.63;;;22.90;53.70;;;;;;5049088;28;20439;-56
2022/10/31 11:11:02;;;;;;;10.93;5.20;;;22.90;53.90;;;;;;5047703;28;20549;-56
2022/10/31 11:13:28;;;;;;;8.50;5.60;;;22.90;53.90;;;;;;5048802;28;20911;-57
2022/10/31 11:15:58;;;;;;;9.00;5.50;;;23.00;53.90;;;;;;5050215;28;20462;-56
2022/10/31 11:18:33;;;;;;;9.13;5.43;;;23.00;54.00;;;;;;5048013;28;20450;-55
2022/10/31 11:21:02;;;;;;;7.83;5.60;;;23.00;53.80;;;;;;5038147;28;20454;-57
2022/10/31 11:23:29;;;;;;;7.50;5.37;;;23.00;53.50;;;;;;5047734;28;20827;-55
2022/10/31 11:26:03;;;;;;;9.10;4.93;;;23.10;53.60;;;;;;5048738;28;20989;-57
2022/10/31 11:28:32;;;;;;;12.60;6.90;;;23.10;53.70;;;;;;5048861;28;20485;-57
2022/10/31 11:30:59;;;;;;;9.33;6.27;;;23.20;53.90;;;;;;5048969;28;20454;-56
2022/10/31 11:33:39;;;;;;;7.03;6.00;;;23.30;54.10;;;;;;5052306;28;20434;-57
2022/10/31 11:36:22;;;;;;;7.73;5.90;;;23.30;54.00;;;;;;5043851;28;20458;-57
2022/10/31 11:38:49;;;;;;;10.30;6.37;;;23.30;53.80;;;;;;5049044;28;20891;-57
2022/10/31 11:41:28;;;;;;;8.80;5.77;;;23.40;53.60;;;;;;5041377;28;20942;-55
2022/10/31 11:43:57;;;;;;;8.73;5.93;;;23.50;53.70;;;;;;5050120;28;20483;-55
2022/10/31 11:46:34;;;;;;;9.07;5.73;;;23.60;53.00;;;;;;5045579;28;20574;-55
2022/10/31 11:49:00;;;;;;;11.40;6.20;;;23.60;53.10;;;;;;5047816;28;20479;-55
2022/10/31 11:51:30;;;;;;;6.40;5.20;;;23.70;53.20;;;;;;5050404;28;20443;-56
2022/10/31 11:53:58;;;;;;;7.30;5.83;;;23.70;52.70;;;;;;5046983;28;20439;-55
2022/10/31 11:56:24;;;;;;;6.43;5.10;;;23.70;52.60;;;;;;5045774;28;20439;-55
2022/10/31 11:59:03;;;;;;;10.60;5.53;;;23.70;52.80;;;;;;5050080;28;20440;-56
2022/10/31 12:01:32;;;;;;;9.20;6.40;;;23.70;53.00;;;;;;5042082;28;20479;-56
2022/10/31 12:04:11;;;;;;;12.73;5.77;;;23.80;53.20;;;;;;5044230;28;20447;-55
2022/10/31 12:06:42;;;;;;;9.40;6.17;;;23.80;53.10;;;;;;5040558;28;20490;-55
2022/10/31 12:09:21;;;;;;;7.80;5.87;;;23.80;53.00;;;;;;5047059;28;21019;-55
2022/10/31 12:12:05;;;;;;;13.10;6.23;;;23.80;52.90;;;;;;5049819;28;20450;-56
2022/10/31 12:14:50;;;;;;;8.80;6.13;;;23.80;52.60;;;;;;5043950;28;20501;-55
2022/10/31 12:17:24;;;;;;;8.80;5.60;;;23.80;52.30;;;;;;5047820;28;20479;-56
2022/10/31 12:20:15;;;;;;;8.40;5.63;;;23.80;52.20;;;;;;5031122;28;20443;-55
2022/10/31 12:22:58;;;;;;;9.13;4.87;;;23.80;51.90;;;;;;5046178;28;20447;-55
2022/10/31 12:25:50;;;;;;;9.20;5.47;;;23.80;51.70;;;;;;5037847;28;20952;-56
2022/10/31 12:28:37;;;;;;;14.03;4.97;;;23.80;51.50;;;;;;5043752;28;20490;-57
2022/10/31 12:31:29;;;;;;;8.27;5.20;;;23.80;51.50;;;;;;5047177;28;21454;-55
2022/10/31 12:34:03;;;;;;;8.20;5.40;;;23.90;51.90;;;;;;5049954;28;20494;-56
2022/10/31 12:36:37;;;;;;;7.80;5.00;;;23.90;51.80;;;;;;5027884;28;21046;-55
2022/10/31 12:39:28;;;;;;;6.97;5.20;;;24.00;51.80;;;;;;5038976;28;20442;-56
2022/10/31 12:42:06;;;;;;;8.97;6.27;;;24.00;52.00;;;;;;5049340;28;20451;-62
2022/10/31 12:44:51;;;;;;;13.13;6.60;;;24.00;52.00;;;;;;5047724;28;20443;-56
2022/10/31 12:47:52;;;;;;;10.83;7.47;;;24.10;51.80;;;;;;5050592;28;21234;-55
2022/10/31 12:51:01;;;;;;;19.03;9.60;;;24.00;51.70;;;;;;5038675;28;20472;-56
2022/10/31 12:53:53;;;;;;;13.40;7.20;;;24.10;51.60;;;;;;5043623;28;20476;-57
2022/10/31 12:56:45;;;;;;;11.10;8.70;;;24.00;51.80;;;;;;5048432;28;20445;-57
2022/10/31 12:59:15;;;;;;;12.23;7.73;;;24.00;52.30;;;;;;5048992;28;20448;-57
2022/10/31 13:01:51;;;;;;;12.27;6.70;;;24.10;52.30;;;;;;5051111;28;20470;-56
2022/10/31 13:04:31;;;;;;;10.13;7.70;;;24.10;52.20;;;;;;5048629;28;20446;-57
2022/10/31 13:07:03;;;;;;;13.77;8.13;;;24.10;52.20;;;;;;5050909;28;20921;-57